Time;durP1;ratioP1;P1;durP2;ratioP2;P2;SDS_P1;SDS_P2;PMS_P1;PMS_P2;Temp;Humidity;BMP_temperature;BMP_pressure;BME280_temperature;BME280_humidity;BME280_pressure;Samples;Min_cycle;Max_cycle;Signal;HPM_P1;HPM_P2
2023/09/21 00:02:13;;;;;;;3.20;2.20;;;;;;;17.59;61.01;94760.03;6129346;23;20186;-81
2023/09/21 00:04:38;;;;;;;2.30;2.10;;;;;;;17.56;60.73;94761.25;6155159;23;20171;-81
2023/09/21 00:07:05;;;;;;;2.70;2.28;;;;;;;17.51;61.30;94760.28;6154838;23;20160;-81
2023/09/21 00:09:32;;;;;;;2.90;2.30;;;;;;;17.57;61.18;94756.78;6155330;23;20163;-81
2023/09/21 00:11:57;;;;;;;2.40;2.13;;;;;;;17.56;61.33;94763.06;6130845;23;20156;-81
2023/09/21 00:14:23;;;;;;;2.38;2.05;;;;;;;17.55;61.54;94754.38;6131692;23;20182;-81
2023/09/21 00:16:48;;;;;;;3.80;2.20;;;;;;;17.55;61.64;94751.75;6130479;23;20159;-82
2023/09/21 00:19:13;;;;;;;2.83;2.50;;;;;;;17.55;61.29;94753.59;6130552;23;20602;-81
2023/09/21 00:21:39;;;;;;;2.97;2.40;;;;;;;17.42;61.96;94749.22;6130823;23;20186;-81
2023/09/21 00:24:05;;;;;;;3.70;2.50;;;;;;;17.42;61.92;94751.84;6130237;23;20201;-82
2023/09/21 00:26:30;;;;;;;3.53;2.65;;;;;;;17.40;61.45;94753.84;6131028;23;20615;-81
2023/09/21 00:28:56;;;;;;;3.75;2.70;;;;;;;17.37;61.74;94756.09;6130897;23;20167;-80
2023/09/21 00:31:21;;;;;;;3.33;2.80;;;;;;;17.35;61.89;94743.19;6155302;23;20152;-81
2023/09/21 00:33:46;;;;;;;2.38;2.17;;;;;;;17.34;61.93;94741.56;6153696;23;20251;-82
2023/09/21 00:36:17;;;;;;;2.85;2.20;;;;;;;17.28;61.99;94740.56;6129891;23;20218;-80
2023/09/21 00:38:43;;;;;;;3.15;2.03;;;;;;;17.26;61.50;94736.56;6154181;23;20143;-80
2023/09/21 00:41:08;;;;;;;3.83;2.60;;;;;;;17.25;61.60;94735.75;6129550;23;20166;-82
2023/09/21 00:43:33;;;;;;;2.97;2.30;;;;;;;17.22;62.00;94733.53;6138780;23;20199;-80
2023/09/21 00:46:05;;;;;;;2.58;2.38;;;;;;;17.19;61.68;94733.97;6182991;23;20143;-80
2023/09/21 00:48:35;;;;;;;4.57;2.92;;;;;;;17.19;61.42;94733.97;6181862;23;20166;-81
2023/09/21 00:51:05;;;;;;;2.72;2.15;;;;;;;17.10;61.76;94729.97;6182276;23;20147;-80
2023/09/21 00:53:31;;;;;;;2.55;2.00;;;;;;;17.15;61.60;94732.78;6179950;23;20163;-83
2023/09/21 00:56:18;;;;;;;2.13;1.70;;;;;;;17.15;61.61;94722.28;6155788;23;20246;-83
2023/09/21 00:58:47;;;;;;;4.30;2.30;;;;;;;17.12;61.42;94722.69;6130638;23;20166;-83
2023/09/21 01:01:16;;;;;;;2.53;1.85;;;;;;;17.10;61.84;94722.09;6180512;23;20493;-82
2023/09/21 01:03:41;;;;;;;2.38;1.88;;;;;;;17.06;61.93;94717.47;6157146;23;20183;-83
2023/09/21 01:06:08;;;;;;;2.70;2.00;;;;;;;17.02;61.95;94719.69;6157549;23;20214;-83
2023/09/21 01:08:33;;;;;;;2.85;2.25;;;;;;;17.03;61.87;94705.56;6133487;23;20595;-83
2023/09/21 01:11:04;;;;;;;1.92;1.73;;;;;;;17.03;61.50;94710.81;6134255;23;20218;-82
2023/09/21 01:13:31;;;;;;;1.85;1.70;;;;;;;16.98;61.91;94706.19;6157091;23;20175;-82
2023/09/21 01:16:01;;;;;;;2.40;2.20;;;;;;;16.98;61.97;94708.81;6157948;23;20189;-81
2023/09/21 01:18:26;;;;;;;3.60;2.05;;;;;;;16.98;61.79;94708.03;6157195;23;20167;-81
2023/09/21 01:20:56;;;;;;;3.00;2.50;;;;;;;16.95;62.07;94705.78;6133114;23;20224;-82
2023/09/21 01:23:55;;;;;;;2.53;1.90;;;;;;;17.03;61.71;94702.94;6180855;23;20183;-81
2023/09/21 01:26:20;;;;;;;2.58;2.03;;;;;;;17.12;61.97;94698.25;6101293;23;20262;-82
2023/09/21 01:28:49;;;;;;;2.85;1.85;;;;;;;17.20;60.83;94693.59;6077056;23;20172;-81
2023/09/21 01:31:15;;;;;;;2.95;2.30;;;;;;;17.25;60.84;94691.16;6102772;23;20156;-82
2023/09/21 01:33:42;;;;;;;2.50;2.10;;;;;;;17.33;60.50;94687.47;6076414;23;20270;-81
2023/09/21 01:36:08;;;;;;;2.08;1.88;;;;;;;17.41;60.31;94686.44;6124569;23;20160;-81
2023/09/21 01:38:37;;;;;;;3.10;1.95;;;;;;;17.44;60.00;94678.13;6124675;23;20159;-82
2023/09/21 01:41:03;;;;;;;3.10;2.15;;;;;;;17.50;59.54;94677.31;6098498;23;20162;-82
2023/09/21 01:43:28;;;;;;;2.72;2.03;;;;;;;17.58;59.15;94679.69;6122085;23;20187;-82
2023/09/21 01:45:54;;;;;;;3.15;1.85;;;;;;;17.61;59.28;94679.25;6076558;23;20175;-81
2023/09/21 01:48:20;;;;;;;1.85;1.65;;;;;;;17.69;58.92;94676.38;6075321;23;20168;-81
2023/09/21 01:50:50;;;;;;;2.72;2.47;;;;;;;17.75;58.71;94675.53;6123856;23;20187;-80
2023/09/21 01:53:16;;;;;;;3.67;1.95;;;;;;;17.81;58.20;94674.69;6075373;23;20180;-81
2023/09/21 01:55:43;;;;;;;2.20;2.00;;;;;;;17.83;58.30;94667.38;6099500;23;20160;-82
2023/09/21 01:58:11;;;;;;;2.63;1.90;;;;;;;17.87;58.58;94664.34;6098787;23;20164;-81
2023/09/21 02:00:43;;;;;;;2.28;1.90;;;;;;;17.93;58.34;94660.84;6074045;23;20300;-80
2023/09/21 02:03:12;;;;;;;2.65;2.10;;;;;;;17.91;58.14;94660.28;6131742;23;20371;-81
2023/09/21 02:05:40;;;;;;;3.03;2.00;;;;;;;17.94;58.09;94657.22;6128817;23;20171;-80
2023/09/21 02:08:07;;;;;;;2.40;2.10;;;;;;;17.89;58.70;94655.22;6128668;23;20159;-80
2023/09/21 02:10:34;;;;;;;2.97;2.15;;;;;;;17.90;58.45;94651.59;6153190;23;20166;-83
2023/09/21 02:13:00;;;;;;;2.85;2.10;;;;;;;17.90;58.69;94651.59;6152762;23;20151;-82
2023/09/21 02:15:26;;;;;;;2.78;2.00;;;;;;;17.97;57.87;94646.28;6130686;23;20156;-79
2023/09/21 02:17:55;;;;;;;3.28;2.00;;;;;;;17.99;58.39;94641.63;6130450;23;20163;-80
2023/09/21 02:20:21;;;;;;;2.83;2.00;;;;;;;18.03;58.14;94635.72;6157159;23;20214;-81
2023/09/21 02:22:48;;;;;;;2.20;2.00;;;;;;;18.03;57.96;94640.19;6179676;23;20182;-80
2023/09/21 02:25:13;;;;;;;3.78;2.25;;;;;;;18.03;58.13;94634.94;6155734;23;20534;-81
2023/09/21 02:27:40;;;;;;;2.70;2.25;;;;;;;18.03;58.05;94635.72;6155464;23;20167;-81
2023/09/21 02:30:09;;;;;;;2.08;1.80;;;;;;;18.00;57.60;94630.88;6154949;23;20160;-79
2023/09/21 02:32:34;;;;;;;2.42;1.95;;;;;;;18.06;57.40;94634.50;6129981;23;20495;-79
2023/09/21 02:35:07;;;;;;;3.22;2.25;;;;;;;18.02;57.90;94628.88;6128730;23;20175;-81
2023/09/21 02:37:33;;;;;;;1.95;1.60;;;;;;;18.01;57.92;94621.19;6130337;23;20499;-81
2023/09/21 02:39:58;;;;;;;5.70;2.13;;;;;;;17.97;57.99;94612.13;6129007;23;20203;-80
2023/09/21 02:42:24;;;;;;;2.67;2.10;;;;;;;17.97;58.11;94612.13;6128860;23;20174;-80
2023/09/21 02:44:50;;;;;;;2.30;1.90;;;;;;;17.95;58.39;94607.09;6128915;23;20182;-81
2023/09/21 02:47:15;;;;;;;2.50;1.90;;;;;;;17.96;58.34;94613.16;6128706;23;20159;-82
2023/09/21 02:49:41;;;;;;;2.28;1.98;;;;;;;17.94;58.17;94608.13;6154111;23;20166;-82
2023/09/21 02:52:06;;;;;;;2.60;2.03;;;;;;;17.99;57.82;94604.84;6129390;23;20159;-82
2023/09/21 02:54:32;;;;;;;2.72;1.98;;;;;;;18.04;57.90;94610.25;6154211;23;20167;-83
2023/09/21 02:56:57;;;;;;;2.90;2.35;;;;;;;18.07;57.56;94604.56;6129726;23;20245;-81
2023/09/21 02:59:25;;;;;;;2.28;2.00;;;;;;;18.13;57.08;94603.72;6129848;23;20167;-81
2023/09/21 03:01:54;;;;;;;3.17;1.80;;;;;;;18.15;56.77;94590.34;6152857;23;20174;-81
2023/09/21 03:04:19;;;;;;;2.67;2.00;;;;;;;18.19;56.40;94600.19;6128643;23;20198;-81
2023/09/21 03:06:45;;;;;;;2.83;1.90;;;;;;;18.23;56.36;94590.88;6127988;23;20163;-81
2023/09/21 03:09:10;;;;;;;2.83;2.00;;;;;;;18.30;56.11;94602.13;6152779;23;20610;-81
2023/09/21 03:11:36;;;;;;;2.05;1.85;;;;;;;18.35;55.68;94602.25;6129944;23;20242;-82
2023/09/21 03:14:03;;;;;;;2.28;1.80;;;;;;;18.39;56.14;94602.63;6129659;23;20233;-81
2023/09/21 03:16:28;;;;;;;2.10;1.75;;;;;;;18.46;56.80;94608.59;6155482;23;20487;-82
2023/09/21 03:18:54;;;;;;;2.35;1.90;;;;;;;18.52;57.48;94601.69;6130217;23;20221;-83
2023/09/21 03:21:19;;;;;;;3.15;1.80;;;;;;;18.60;58.12;94593.50;6130928;23;20206;-82
2023/09/21 03:23:46;;;;;;;2.17;1.77;;;;;;;18.57;59.06;94600.00;6153929;23;20187;-81
2023/09/21 03:26:14;;;;;;;2.70;1.95;;;;;;;18.56;59.64;94597.59;6130206;23;20174;-82
2023/09/21 03:28:39;;;;;;;2.63;2.20;;;;;;;18.46;61.35;94594.66;6153191;23;20156;-81
2023/09/21 03:31:05;;;;;;;4.45;2.20;;;;;;;18.43;61.73;94603.00;6154243;23;20226;-81
2023/09/21 03:33:31;;;;;;;3.30;1.88;;;;;;;18.42;61.59;94602.19;6128483;23;20204;-82
2023/09/21 03:35:56;;;;;;;2.45;1.95;;;;;;;18.32;61.74;94602.69;6153503;23;20222;-81
2023/09/21 03:38:22;;;;;;;2.53;2.33;;;;;;;18.43;61.49;94595.09;6153127;23;20603;-81
2023/09/21 03:40:49;;;;;;;3.97;2.30;;;;;;;18.42;61.96;94590.88;6128932;23;20166;-82
2023/09/21 03:43:14;;;;;;;2.50;1.98;;;;;;;18.43;62.95;94595.91;6177661;23;20191;-80
2023/09/21 03:45:41;;;;;;;4.78;2.17;;;;;;;18.42;63.54;94590.88;6154461;23;20175;-82
2023/09/21 03:48:08;;;;;;;2.08;1.80;;;;;;;18.34;64.20;94590.13;6177601;23;20155;-80
2023/09/21 03:50:34;;;;;;;4.35;2.13;;;;;;;18.29;64.77;94589.22;6128694;23;20499;-81
2023/09/21 03:53:00;;;;;;;2.60;2.17;;;;;;;18.28;64.26;94585.75;6152397;23;20155;-81
2023/09/21 03:55:25;;;;;;;3.63;2.55;;;;;;;18.29;64.10;94586.56;6153639;23;20155;-81
2023/09/21 03:57:51;;;;;;;3.20;2.08;;;;;;;18.28;64.19;94580.50;6153068;23;20234;-81
2023/09/21 04:00:39;;;;;;;2.20;2.00;;;;;;;18.29;63.97;94579.50;6128378;23;20155;-81
2023/09/21 04:03:10;;;;;;;2.13;1.92;;;;;;;18.30;65.03;94580.28;6152088;23;20183;-80
2023/09/21 04:05:37;;;;;;;2.50;2.15;;;;;;;18.15;64.90;94583.28;6129162;23;20182;-80
2023/09/21 04:08:03;;;;;;;2.95;2.53;;;;;;;18.19;64.41;94575.75;6128242;23;20600;-81
2023/09/21 04:10:30;;;;;;;3.10;2.22;;;;;;;18.22;64.22;94581.38;6153043;23;20226;-81
2023/09/21 04:12:55;;;;;;;3.33;2.13;;;;;;;17.95;65.04;94580.84;6152817;23;20163;-81
2023/09/21 04:15:25;;;;;;;2.40;2.20;;;;;;;18.04;64.57;94584.00;6129388;23;20159;-82
2023/09/21 04:17:51;;;;;;;2.30;2.10;;;;;;;18.17;64.36;94583.84;6154821;23;20179;-82
2023/09/21 04:20:18;;;;;;;2.67;2.40;;;;;;;18.14;64.52;94573.78;6129370;23;20160;-81
2023/09/21 04:22:44;;;;;;;5.30;2.10;;;;;;;18.18;64.97;94568.88;6153209;23;20206;-81
2023/09/21 04:25:13;;;;;;;2.22;2.00;;;;;;;18.17;64.95;94567.28;6129574;23;20190;-80
2023/09/21 04:27:41;;;;;;;2.50;2.10;;;;;;;18.11;65.52;94564.53;6129728;23;20257;-81
2023/09/21 04:30:14;;;;;;;2.10;1.80;;;;;;;18.17;65.34;94557.56;6154434;23;20603;-81
2023/09/21 04:32:40;;;;;;;3.25;2.20;;;;;;;18.17;65.22;94556.78;6155172;23;20132;-81
2023/09/21 04:35:06;;;;;;;2.65;2.22;;;;;;;18.18;64.98;94556.56;6179586;23;20175;-81
2023/09/21 04:37:33;;;;;;;2.78;2.20;;;;;;;18.11;65.64;94550.59;6153728;23;20243;-80
2023/09/21 04:39:59;;;;;;;3.13;2.13;;;;;;;18.03;66.08;94553.50;6153916;23;20163;-81
2023/09/21 04:42:27;;;;;;;2.50;2.00;;;;;;;18.02;65.81;94552.69;6129212;23;20222;-82
2023/09/21 04:44:55;;;;;;;2.60;2.20;;;;;;;18.01;65.06;94552.88;6153389;23;20187;-81
2023/09/21 04:47:20;;;;;;;3.45;2.40;;;;;;;18.03;65.16;94553.50;6153182;23;20491;-81
2023/09/21 04:49:47;;;;;;;4.68;2.20;;;;;;;18.08;65.22;94556.25;6129025;23;20159;-81
2023/09/21 04:52:13;;;;;;;3.42;2.47;;;;;;;18.16;65.01;94552.53;6152508;23;20174;-81
2023/09/21 04:54:38;;;;;;;2.95;1.92;;;;;;;18.14;65.41;94552.75;6152741;23;20171;-80
2023/09/21 04:57:04;;;;;;;3.60;2.33;;;;;;;18.09;65.89;94550.78;6128876;23;20165;-80
2023/09/21 04:59:29;;;;;;;4.93;2.28;;;;;;;18.10;66.35;94552.38;6127940;23;20159;-82
2023/09/21 05:01:55;;;;;;;2.15;1.90;;;;;;;18.10;65.57;94548.94;6126279;23;20167;-82
2023/09/21 05:04:21;;;;;;;2.50;2.00;;;;;;;18.08;65.11;94549.19;6151287;23;20532;-82
2023/09/21 05:06:46;;;;;;;5.82;2.40;;;;;;;18.10;65.23;94546.31;6127506;23;20213;-81
2023/09/21 05:09:12;;;;;;;2.80;2.00;;;;;;;18.03;64.98;94543.78;6128446;23;20155;-81
2023/09/21 05:11:40;;;;;;;4.75;2.40;;;;;;;18.11;64.58;94546.13;6150981;23;20775;-81
2023/09/21 05:14:06;;;;;;;4.10;2.30;;;;;;;18.07;64.62;94544.94;6151316;23;20512;-81
2023/09/21 05:16:34;;;;;;;3.17;2.10;;;;;;;18.19;64.73;94554.72;6127760;23;20161;-80
2023/09/21 05:19:00;;;;;;;3.25;2.40;;;;;;;18.24;64.82;94553.06;6152441;23;20155;-80
2023/09/21 05:21:25;;;;;;;3.08;2.20;;;;;;;18.21;65.30;94545.63;6153147;23;20152;-82
2023/09/21 05:23:51;;;;;;;3.38;2.58;;;;;;;18.16;65.94;94553.34;6151967;23;20194;-80
2023/09/21 05:26:16;;;;;;;2.80;2.30;;;;;;;17.94;66.13;94539.84;6128532;23;20175;-82
2023/09/21 05:28:43;;;;;;;2.90;2.28;;;;;;;17.97;65.41;94546.47;6152787;23;20162;-81
2023/09/21 05:31:09;;;;;;;2.53;2.15;;;;;;;18.04;64.88;94542.75;6127728;23;20266;-82
2023/09/21 05:33:35;;;;;;;2.45;1.95;;;;;;;18.14;64.21;94542.25;6151916;23;20535;-81
2023/09/21 05:36:04;;;;;;;2.65;2.20;;;;;;;18.16;63.85;94539.41;6126183;23;20174;-81
2023/09/21 05:38:32;;;;;;;2.78;2.10;;;;;;;18.20;63.48;94533.50;6152448;23;20507;-80
2023/09/21 05:40:57;;;;;;;3.00;2.20;;;;;;;18.19;63.39;94534.50;6152990;23;20183;-80
2023/09/21 05:43:23;;;;;;;2.72;2.17;;;;;;;18.18;63.32;94527.66;6153457;23;20190;-80
2023/09/21 05:45:48;;;;;;;2.83;2.17;;;;;;;18.19;63.32;94531.88;6151853;23;20160;-81
2023/09/21 05:48:17;;;;;;;5.35;2.33;;;;;;;18.16;64.54;94529.69;6127690;23;20163;-81
2023/09/21 05:50:43;;;;;;;4.40;2.33;;;;;;;18.00;64.14;94528.44;6151958;23;20209;-81
2023/09/21 05:53:08;;;;;;;7.25;2.35;;;;;;;18.18;63.75;94516.34;6151236;23;20250;-81
2023/09/21 05:55:34;;;;;;;2.95;2.08;;;;;;;18.23;63.56;94514.66;6151600;23;20446;-80
2023/09/21 05:57:59;;;;;;;2.97;2.17;;;;;;;18.21;63.34;94511.47;6126730;23;20170;-80
2023/09/21 06:00:24;;;;;;;2.00;1.80;;;;;;;18.40;62.97;94515.69;6152916;23;20151;-82
2023/09/21 06:02:50;;;;;;;2.20;2.00;;;;;;;18.46;62.66;94521.06;6126054;23;20179;-82
2023/09/21 06:05:19;;;;;;;2.65;2.40;;;;;;;18.50;62.92;94522.25;6148345;23;20833;-83
2023/09/21 06:07:44;;;;;;;2.35;2.15;;;;;;;18.57;62.45;94520.34;6126544;23;20166;-83
2023/09/21 06:10:09;;;;;;;1.92;1.77;;;;;;;18.68;62.33;94527.50;6126859;23;20559;-84
2023/09/21 06:12:35;;;;;;;3.67;2.50;;;;;;;18.71;62.01;94527.03;6152897;23;20638;-85
2023/09/21 06:15:00;;;;;;;3.03;2.40;;;;;;;18.64;62.23;94534.19;6128040;23;20635;-84
2023/09/21 06:17:26;;;;;;;4.15;2.22;;;;;;;18.77;61.67;94530.63;6153188;23;20254;-83
2023/09/21 06:19:53;;;;;;;2.88;2.42;;;;;;;18.77;61.56;94533.25;6151285;23;20170;-82
2023/09/21 06:22:21;;;;;;;3.50;2.38;;;;;;;18.92;61.14;94529.19;6127376;23;20168;-86
2023/09/21 06:25:02;;;;;;;2.30;2.10;;;;;;;19.13;60.60;94525.25;6154309;23;20625;-86
2023/09/21 06:27:49;;;;;;;4.05;2.05;;;;;;;19.25;60.75;94527.91;6128209;23;20171;-85
2023/09/21 06:33:32;;;;;;;3.17;2.17;;;;;;;19.42;60.76;94530.69;6143615;23;20163;-85
2023/09/21 06:43:35;;;;;;;;;;;;;;;;;;;;;
2023/09/21 06:46:11;;;;;;;7.07;2.10;;;;;;;19.68;58.85;94521.56;6096383;23;20259;-85
2023/09/21 06:48:48;;;;;;;2.40;2.00;;;;;;;19.63;59.57;94518.84;6072242;23;20157;-85
2023/09/21 06:58:45;;;;;;;4.68;2.08;;;;;;;19.60;59.52;94522.72;6006090;23;20166;-87
2023/09/21 07:01:13;;;;;;;2.45;1.95;;;;;;;19.48;60.86;94509.50;6012541;23;20186;-85
2023/09/21 07:04:35;;;;;;;2.92;2.22;;;;;;;19.57;59.91;94510.00;6011843;23;20194;-85
2023/09/21 08:00:23;;;;;;;2.05;1.70;;;;;;;23.53;50.67;94452.97;6186264;23;20212;-85
2023/09/21 08:02:49;;;;;;;1.88;1.77;;;;;;;23.89;48.74;94449.50;6157347;23;20259;-79
2023/09/21 08:05:15;;;;;;;2.60;1.80;;;;;;;23.94;48.19;94454.03;6176805;23;20171;-80
2023/09/21 08:07:40;;;;;;;2.35;1.73;;;;;;;24.15;47.96;94449.66;6152860;23;20166;-80
2023/09/21 08:10:07;;;;;;;3.45;1.90;;;;;;;24.25;48.58;94452.34;6128324;23;20163;-79
2023/09/21 08:12:34;;;;;;;2.85;1.90;;;;;;;24.42;47.18;94452.19;6177811;23;20166;-80
2023/09/21 08:15:00;;;;;;;2.38;1.70;;;;;;;24.32;47.21;94454.78;6129797;23;20193;-78
2023/09/21 08:17:26;;;;;;;2.30;1.90;;;;;;;24.35;46.81;94456.91;6155665;23;20186;-79
2023/09/21 08:19:52;;;;;;;2.00;1.80;;;;;;;24.40;46.83;94455.09;6154499;23;20206;-78
2023/09/21 08:22:17;;;;;;;3.70;1.90;;;;;;;24.49;46.19;94463.34;6152787;23;20159;-80
2023/09/21 08:24:42;;;;;;;5.20;3.20;;;;;;;24.10;47.58;94476.13;6154044;23;20187;-79
2023/09/21 08:27:08;;;;;;;3.67;2.30;;;;;;;24.13;48.07;94476.44;6153232;23;20155;-77
2023/09/21 08:29:34;;;;;;;2.17;1.95;;;;;;;24.15;47.29;94478.81;6128423;23;20166;-80
2023/09/21 08:31:59;;;;;;;3.83;2.20;;;;;;;24.09;47.55;94491.25;6127016;23;20752;-79
2023/09/21 08:34:24;;;;;;;2.30;1.88;;;;;;;23.80;48.20;94488.16;6152959;23;20167;-80
2023/09/21 08:36:50;;;;;;;3.17;2.30;;;;;;;23.53;47.42;94477.63;6151768;23;20490;-79
2023/09/21 08:39:16;;;;;;;2.13;1.85;;;;;;;23.39;47.54;94479.88;6176631;23;20159;-79
2023/09/21 08:41:47;;;;;;;2.35;2.00;;;;;;;23.57;47.34;94465.44;6153786;23;20555;-79
2023/09/21 08:44:12;;;;;;;2.42;2.15;;;;;;;23.57;47.09;94464.66;6127386;23;20756;-79
2023/09/21 08:46:38;;;;;;;2.00;1.80;;;;;;;23.70;47.28;94457.09;6152515;23;20152;-83
2023/09/21 08:49:05;;;;;;;4.63;2.30;;;;;;;23.66;47.35;94457.84;6152309;23;20163;-81
2023/09/21 08:51:32;;;;;;;3.90;2.63;;;;;;;23.57;48.22;94452.19;6152584;23;20607;-82
2023/09/21 08:53:59;;;;;;;5.55;2.50;;;;;;;23.52;48.14;94456.69;6127266;23;20198;-82
2023/09/21 08:56:25;;;;;;;2.20;2.00;;;;;;;23.56;47.57;94455.09;6152298;23;20238;-83
2023/09/21 08:58:52;;;;;;;2.90;2.15;;;;;;;23.52;48.96;94454.03;6177200;23;20163;-83
2023/09/21 09:01:18;;;;;;;4.70;2.25;;;;;;;23.39;49.70;94448.09;6129224;23;20579;-82
2023/09/21 09:03:44;;;;;;;2.03;1.83;;;;;;;23.33;49.07;94449.13;6128409;23;20521;-84
2023/09/21 09:06:10;;;;;;;3.33;2.35;;;;;;;23.34;48.64;94442.78;6128611;23;20204;-83
2023/09/21 09:08:35;;;;;;;3.33;2.33;;;;;;;23.20;49.94;94435.50;6128799;23;20163;-85
2023/09/21 09:11:03;;;;;;;3.25;2.40;;;;;;;23.44;49.54;94445.50;6128584;23;20155;-85
2023/09/21 09:25:49;;;;;;;3.20;2.22;;;;;;;23.74;49.01;94429.00;6092358;23;20176;-83
2023/09/21 09:28:15;;;;;;;3.38;2.25;;;;;;;23.73;49.61;94424.78;6044158;23;20248;-84
2023/09/21 09:30:45;;;;;;;2.63;1.90;;;;;;;23.87;48.53;94424.31;6043981;23;20176;-84
2023/09/21 09:33:15;;;;;;;2.45;2.20;;;;;;;23.92;48.88;94422.47;6066978;23;20236;-82
2023/09/21 09:35:45;;;;;;;2.38;1.98;;;;;;;24.25;47.77;94413.34;6045306;23;20299;-83
2023/09/21 09:38:10;;;;;;;2.55;1.92;;;;;;;24.11;48.09;94414.88;6092752;23;20163;-84
2023/09/21 09:40:42;;;;;;;2.38;2.08;;;;;;;24.32;48.41;94415.00;6070033;23;20168;-84
2023/09/21 09:43:07;;;;;;;2.35;2.10;;;;;;;24.02;49.08;94411.13;6093211;23;20180;-83
2023/09/21 09:45:35;;;;;;;2.70;2.13;;;;;;;23.94;49.27;94408.97;6070231;23;20243;-84
2023/09/21 09:48:11;;;;;;;2.28;1.95;;;;;;;23.86;49.99;94412.13;6047983;23;20260;-84
2023/09/21 09:50:41;;;;;;;2.53;2.10;;;;;;;24.04;49.48;94408.25;6044528;23;20342;-81
2023/09/21 09:53:10;;;;;;;2.85;1.85;;;;;;;24.06;50.33;94404.25;6066131;23;20144;-81
2023/09/21 09:55:36;;;;;;;3.15;2.20;;;;;;;24.17;49.83;94402.44;6043425;23;20160;-79
2023/09/21 09:58:03;;;;;;;4.22;2.40;;;;;;;24.37;50.12;94407.84;6042651;23;20177;-82
2023/09/21 10:00:29;;;;;;;3.17;2.30;;;;;;;24.54;50.19;94400.44;6090965;23;20168;-81
2023/09/21 10:02:56;;;;;;;2.65;2.22;;;;;;;24.59;50.51;94399.69;6098672;23;20715;-80
2023/09/21 10:05:24;;;;;;;3.22;2.22;;;;;;;24.81;49.39;94404.75;6156171;23;20480;-80
2023/09/21 10:07:49;;;;;;;2.00;1.80;;;;;;;24.80;48.65;94392.53;6156695;23;20194;-82
2023/09/21 10:10:19;;;;;;;2.58;2.00;;;;;;;24.85;47.75;94389.91;6180530;23;20161;-80
2023/09/21 10:12:46;;;;;;;2.78;1.95;;;;;;;24.92;47.63;94392.31;6181448;23;20234;-81
2023/09/21 10:15:16;;;;;;;3.70;2.22;;;;;;;24.99;48.21;94392.81;6156127;23;20233;-80
2023/09/21 10:17:42;;;;;;;2.30;1.90;;;;;;;25.04;46.73;94383.03;6157307;23;20162;-80
2023/09/21 10:20:14;;;;;;;2.30;1.80;;;;;;;25.10;45.57;94384.63;6157242;23;20170;-80
2023/09/21 10:22:42;;;;;;;2.05;1.58;;;;;;;24.88;46.74;94380.59;6182187;23;20232;-81
2023/09/21 10:25:08;;;;;;;5.30;2.10;;;;;;;24.82;46.89;94382.44;6184007;23;20238;-80
2023/09/21 10:27:33;;;;;;;2.72;1.63;;;;;;;24.64;47.27;94388.25;6182964;23;20151;-80
2023/09/21 10:30:09;;;;;;;2.53;1.80;;;;;;;24.67;46.78;94382.44;6183163;23;20234;-80
2023/09/21 10:32:49;;;;;;;2.22;1.80;;;;;;;24.70;46.82;94374.75;6181969;23;20134;-80
2023/09/21 10:35:43;;;;;;;2.25;2.05;;;;;;;24.50;46.60;94377.38;6158247;23;20174;-81
2023/09/21 10:38:16;;;;;;;2.53;1.90;;;;;;;24.47;47.49;94373.41;6182816;23;20139;-84
2023/09/21 10:40:42;;;;;;;3.30;2.05;;;;;;;24.56;47.66;94377.13;6159948;23;20197;-85
2023/09/21 10:43:40;;;;;;;2.90;1.77;;;;;;;24.27;48.40;94374.09;6159243;23;20187;-85
2023/09/21 10:46:20;;;;;;;2.08;1.88;;;;;;;24.36;47.11;94363.78;6065952;23;20724;-84
2023/09/21 10:48:46;;;;;;;2.42;1.83;;;;;;;24.10;47.93;94372.69;6017868;23;20199;-82
2023/09/21 10:51:12;;;;;;;4.88;2.22;;;;;;;24.25;48.24;94372.75;6018048;23;20248;-84
2023/09/21 10:53:37;;;;;;;1.92;1.73;;;;;;;24.37;48.10;94361.94;6041129;23;20181;-83
2023/09/21 10:56:05;;;;;;;4.93;1.90;;;;;;;24.30;47.49;94354.22;6017309;23;20731;-84
2023/09/21 10:58:33;;;;;;;2.97;2.13;;;;;;;24.32;47.35;94351.34;6018139;23;20863;-83
2023/09/21 11:01:00;;;;;;;4.25;2.03;;;;;;;24.29;47.78;94348.13;6040790;23;20208;-83
2023/09/21 11:03:26;;;;;;;2.70;1.88;;;;;;;24.40;47.74;94353.47;6016006;23;20193;-84
2023/09/21 11:05:54;;;;;;;2.80;1.90;;;;;;;24.37;48.28;94349.47;6017411;23;20181;-83
2023/09/21 11:08:19;;;;;;;5.03;1.80;;;;;;;24.64;47.53;94348.44;6041065;23;20164;-83
2023/09/21 11:10:46;;;;;;;2.83;1.90;;;;;;;24.74;47.89;94353.78;6041478;23;20161;-82
2023/09/21 11:13:13;;;;;;;3.20;2.03;;;;;;;24.54;47.37;94347.38;6016050;23;20321;-83
2023/09/21 11:15:39;;;;;;;2.40;1.70;;;;;;;25.12;45.69;94340.00;6042642;23;20162;-84
2023/09/21 11:18:04;;;;;;;2.55;2.00;;;;;;;25.34;46.20;94341.53;6046625;23;20192;-83
2023/09/21 11:20:30;;;;;;;1.90;1.70;;;;;;;25.34;46.16;94338.88;6067038;23;20199;-82
2023/09/21 11:22:55;;;;;;;3.47;2.00;;;;;;;25.13;46.96;94330.97;6153945;23;20181;-84
2023/09/21 11:25:22;;;;;;;12.77;3.55;;;;;;;25.38;46.04;94329.34;6156990;23;20162;-83
2023/09/21 11:27:49;;;;;;;3.60;2.45;;;;;;;25.27;44.85;94319.78;6179945;23;20154;-83
2023/09/21 11:30:14;;;;;;;2.58;1.98;;;;;;;25.46;45.94;94312.84;6157419;23;20650;-82
2023/09/21 11:32:43;;;;;;;1.73;1.60;;;;;;;25.28;44.46;94316.06;6154523;23;20236;-83
2023/09/21 11:35:09;;;;;;;3.53;1.60;;;;;;;25.41;44.93;94310.19;6154937;23;20186;-83
2023/09/21 11:37:35;;;;;;;3.00;1.80;;;;;;;25.71;43.35;94309.34;6155989;23;20162;-83
2023/09/21 11:40:03;;;;;;;2.55;1.42;;;;;;;25.83;43.75;94301.03;6180202;23;20162;-83
2023/09/21 11:42:33;;;;;;;2.53;1.55;;;;;;;25.60;43.64;94295.22;6153493;23;20182;-84
2023/09/21 11:44:58;;;;;;;2.47;1.52;;;;;;;25.57;43.43;94290.47;6156544;23;20205;-85
2023/09/21 11:47:24;;;;;;;1.67;1.58;;;;;;;25.91;42.87;94287.19;6181102;23;20632;-82
2023/09/21 11:49:52;;;;;;;2.65;1.70;;;;;;;26.03;42.86;94279.66;6155522;23;20212;-84
2023/09/21 11:52:17;;;;;;;4.53;1.77;;;;;;;26.04;43.00;94288.44;6155744;23;20163;-83
2023/09/21 11:54:43;;;;;;;3.38;1.90;;;;;;;26.09;42.40;94283.09;6180110;23;20553;-83
2023/09/21 11:57:09;;;;;;;3.83;1.67;;;;;;;26.30;41.54;94281.09;6155564;23;20155;-82
2023/09/21 11:59:39;;;;;;;1.70;1.60;;;;;;;26.13;42.31;94273.47;6156038;23;20158;-81
2023/09/21 12:02:09;;;;;;;3.05;2.05;;;;;;;26.21;42.56;94273.69;6182704;23;20763;-77
2023/09/21 12:04:36;;;;;;;3.00;1.88;;;;;;;26.45;41.72;94265.06;6182298;23;20186;-80
2023/09/21 12:07:01;;;;;;;4.20;1.50;;;;;;;26.76;41.40;94263.72;6181146;23;20166;-79
2023/09/21 12:09:27;;;;;;;1.80;1.63;;;;;;;26.68;40.52;94263.53;6180974;23;20166;-79
2023/09/21 12:11:54;;;;;;;2.83;1.80;;;;;;;26.36;42.71;94262.16;6168656;23;20162;-80
2023/09/21 12:14:21;;;;;;;3.17;1.63;;;;;;;26.03;42.06;94260.25;6166524;23;20265;-80
2023/09/21 12:16:50;;;;;;;2.40;1.45;;;;;;;26.44;41.21;94242.19;6143417;23;20669;-80
2023/09/21 12:19:16;;;;;;;2.65;1.60;;;;;;;26.41;40.39;94248.81;6143772;23;20186;-80
2023/09/21 12:21:41;;;;;;;2.85;1.75;;;;;;;25.91;42.75;94252.59;6182339;23;20162;-79
2023/09/21 12:24:07;;;;;;;1.67;1.58;;;;;;;26.11;41.98;94236.50;6181488;23;20269;-80
2023/09/21 12:26:35;;;;;;;2.08;1.80;;;;;;;26.55;41.24;94241.00;6181877;23;20161;-80
2023/09/21 12:29:01;;;;;;;2.88;1.75;;;;;;;26.65;40.41;94240.13;6157239;23;20606;-79
2023/09/21 12:31:27;;;;;;;7.05;2.03;;;;;;;26.33;40.88;94233.44;6157304;23;20213;-79
2023/09/21 12:33:52;;;;;;;2.78;1.65;;;;;;;26.15;41.97;94229.59;6180913;23;20170;-80
2023/09/21 12:36:18;;;;;;;4.95;2.10;;;;;;;26.36;41.01;94218.78;6182251;23;20155;-80
2023/09/21 12:38:44;;;;;;;3.03;2.10;;;;;;;26.64;40.54;94222.56;6176469;23;20193;-80
2023/09/21 12:41:10;;;;;;;4.25;1.67;;;;;;;26.59;41.12;94215.41;6210962;23;20155;-79
2023/09/21 12:43:38;;;;;;;2.85;1.70;;;;;;;26.69;41.16;94212.69;6209545;23;20181;-80
2023/09/21 12:46:04;;;;;;;1.92;1.67;;;;;;;26.95;40.35;94201.78;6210245;23;20151;-79
2023/09/21 12:48:29;;;;;;;6.07;1.85;;;;;;;26.98;40.86;94202.00;6165670;23;20182;-80
2023/09/21 12:50:54;;;;;;;2.15;1.60;;;;;;;26.89;40.29;94200.25;6184392;23;20241;-81
2023/09/21 12:53:20;;;;;;;2.65;1.90;;;;;;;27.21;41.14;94192.47;6183622;23;20367;-80
2023/09/21 12:55:46;;;;;;;2.05;1.60;;;;;;;27.27;39.79;94186.00;6183673;23;20166;-80
2023/09/21 12:58:11;;;;;;;2.75;1.77;;;;;;;27.37;39.54;94180.53;6182069;23;20158;-80
2023/09/21 13:00:37;;;;;;;1.77;1.67;;;;;;;27.16;40.03;94181.06;6157077;23;20163;-80